Time;durP1;ratioP1;P1;durP2;ratioP2;P2;SDS_P1;SDS_P2;PMS_P1;PMS_P2;Temp;Humidity;BMP_temperature;BMP_pressure;BME280_temperature;BME280_humidity;BME280_pressure;Samples;Min_cycle;Max_cycle;Signal;HPM_P1;HPM_P2
2021/06/29 00:02:03;;;;;;;5.65;5.15;;;;;;;19.24;100.00;98467.81;4807131;29;103114;-76
2021/06/29 00:04:31;;;;;;;6.82;5.35;;;;;;;19.16;100.00;98478.53;4810069;29;103121;-76
2021/06/29 00:06:59;;;;;;;4.03;3.70;;;;;;;19.15;100.00;98481.38;4801884;29;105423;-76
2021/06/29 00:09:28;;;;;;;3.92;3.63;;;;;;;19.12;100.00;98482.53;4794892;29;103822;-76
2021/06/29 00:11:56;;;;;;;4.65;4.22;;;;;;;19.08;100.00;98487.41;4806950;29;103176;-75
2021/06/29 00:14:25;;;;;;;3.67;3.38;;;;;;;19.11;100.00;98483.56;4798011;29;103053;-75
2021/06/29 00:16:54;;;;;;;4.55;4.20;;;;;;;19.14;100.00;98482.38;4780989;29;103909;-75
2021/06/29 00:19:22;;;;;;;3.53;3.20;;;;;;;19.17;100.00;98482.88;4809362;29;105257;-75
2021/06/29 00:21:50;;;;;;;3.65;3.22;;;;;;;19.10;100.00;98482.72;4785506;29;103407;-77
2021/06/29 00:24:18;;;;;;;4.78;3.50;;;;;;;19.04;100.00;98486.06;4795710;29;102743;-75
2021/06/29 00:26:46;;;;;;;3.22;2.97;;;;;;;19.08;100.00;98495.44;4785586;29;103946;-76
2021/06/29 00:29:14;;;;;;;4.10;3.80;;;;;;;19.10;100.00;98501.47;4795209;29;104137;-76
2021/06/29 00:31:43;;;;;;;4.15;3.83;;;;;;;18.98;100.00;98504.63;4790829;29;102964;-75
2021/06/29 00:34:11;;;;;;;5.05;4.10;;;;;;;18.73;100.00;98498.47;4803864;29;103760;-75
2021/06/29 00:36:39;;;;;;;3.88;3.58;;;;;;;18.79;100.00;98496.97;4794930;29;103897;-76
2021/06/29 00:39:07;;;;;;;4.10;3.67;;;;;;;18.86;100.00;98485.41;4794617;29;104139;-76
2021/06/29 00:41:35;;;;;;;3.75;3.45;;;;;;;18.84;100.00;98487.41;4800784;29;103137;-75
2021/06/29 00:44:03;;;;;;;4.05;3.72;;;;;;;18.77;100.00;98486.44;4805926;29;103153;-78
2021/06/29 00:46:31;;;;;;;3.78;3.50;;;;;;;18.86;100.00;98480.06;4809677;29;104020;-76
2021/06/29 00:49:00;;;;;;;3.83;3.38;;;;;;;18.90;100.00;98476.06;4796765;29;103314;-75
2021/06/29 00:51:28;;;;;;;3.17;2.88;;;;;;;18.91;100.00;98469.69;4807766;29;103189;-76
2021/06/29 00:53:56;;;;;;;2.63;2.42;;;;;;;18.91;100.00;98477.72;4809076;29;102998;-75
2021/06/29 00:56:24;;;;;;;3.72;3.40;;;;;;;18.96;100.00;98480.72;4798746;29;103936;-75
2021/06/29 00:58:52;;;;;;;4.95;3.40;;;;;;;18.95;100.00;98470.19;4799529;29;103787;-75
2021/06/29 01:01:20;;;;;;;4.18;3.15;;;;;;;18.95;100.00;98467.50;4798216;29;103044;-76
2021/06/29 01:03:48;;;;;;;4.05;3.10;;;;;;;18.91;100.00;98472.38;4800179;29;102816;-75
2021/06/29 01:06:19;;;;;;;4.10;3.80;;;;;;;18.83;100.00;98463.50;4794372;29;105182;-76
2021/06/29 01:08:47;;;;;;;3.50;3.20;;;;;;;18.91;100.00;98450.13;4798929;29;105348;-76
2021/06/29 01:11:15;;;;;;;4.25;3.95;;;;;;;18.88;100.00;98440.59;4793917;29;103089;-76
2021/06/29 01:13:45;;;;;;;3.08;2.88;;;;;;;18.90;100.00;98441.25;4781356;29;103114;-75
2021/06/29 01:16:14;;;;;;;3.45;3.15;;;;;;;18.92;100.00;98443.75;4792757;29;104401;-76
2021/06/29 01:18:45;;;;;;;4.60;3.78;;;;;;;19.00;100.00;98438.41;4792740;29;104946;-76
2021/06/29 01:21:17;;;;;;;3.40;3.10;;;;;;;18.95;100.00;98428.19;4793214;29;102994;-75
2021/06/29 01:23:49;;;;;;;3.45;3.15;;;;;;;18.95;100.00;98430.88;4809083;29;102972;-76
2021/06/29 01:26:21;;;;;;;4.95;3.35;;;;;;;18.98;100.00;98422.50;4800571;29;105103;-75
2021/06/29 01:28:59;;;;;;;5.30;4.68;;;;;;;18.41;100.00;98410.16;4795686;29;104517;-76
2021/06/29 01:31:26;;;;;;;6.68;4.97;;;;;;;18.46;100.00;98413.16;4796840;29;103009;-76
2021/06/29 01:33:54;;;;;;;4.80;4.35;;;;;;;18.40;100.00;98413.81;4806152;29;103222;-76
2021/06/29 01:36:25;;;;;;;4.47;4.07;;;;;;;18.58;100.00;98417.22;4797500;29;103860;-76
2021/06/29 01:38:53;;;;;;;5.70;5.00;;;;;;;18.40;100.00;98413.81;4789522;29;105665;-76
2021/06/29 01:41:23;;;;;;;4.70;4.30;;;;;;;18.34;100.00;98403.78;4792968;29;102668;-76
2021/06/29 01:43:53;;;;;;;4.45;4.05;;;;;;;18.36;100.00;98407.13;4805337;29;103087;-75
2021/06/29 01:46:25;;;;;;;4.28;3.97;;;;;;;18.21;100.00;98398.94;4808374;29;105143;-75
2021/06/29 01:48:56;;;;;;;5.13;4.72;;;;;;;18.06;100.00;98405.09;4791688;29;105219;-76
2021/06/29 01:51:25;;;;;;;4.13;3.78;;;;;;;18.30;100.00;98402.47;4795016;29;103132;-76
2021/06/29 01:53:54;;;;;;;3.92;3.63;;;;;;;18.42;100.00;98406.47;4812012;29;103116;-75
2021/06/29 01:56:30;;;;;;;3.65;3.42;;;;;;;18.50;100.00;98401.13;4805628;29;103849;-76
2021/06/29 01:59:00;;;;;;;3.60;3.30;;;;;;;18.57;100.00;98412.84;4812248;29;103801;-76
2021/06/29 02:01:28;;;;;;;4.88;3.85;;;;;;;18.30;100.00;98429.22;4800667;29;103328;-76
2021/06/29 02:03:56;;;;;;;4.25;3.67;;;;;;;18.35;100.00;98448.25;4806832;29;103153;-76
2021/06/29 02:06:25;;;;;;;4.35;3.50;;;;;;;18.45;100.00;98464.97;4800795;29;103887;-76
2021/06/29 02:08:56;;;;;;;3.42;3.20;;;;;;;18.47;100.00;98484.34;4803617;29;103722;-76
2021/06/29 02:11:24;;;;;;;4.20;3.90;;;;;;;18.51;100.00;98481.22;4806035;29;102944;-76
2021/06/29 02:13:52;;;;;;;4.25;3.75;;;;;;;18.49;100.00;98501.13;4810547;29;103319;-76
2021/06/29 02:16:20;;;;;;;3.70;2.97;;;;;;;18.61;100.00;98507.81;4805992;29;105323;-75
2021/06/29 02:18:48;;;;;;;4.28;3.75;;;;;;;18.61;100.00;98525.72;4801747;29;104919;-76
2021/06/29 02:21:16;;;;;;;3.05;2.80;;;;;;;18.67;100.00;98539.25;4805508;29;102680;-79
2021/06/29 02:23:45;;;;;;;3.42;3.17;;;;;;;18.76;100.00;98532.91;4799976;29;102910;-79
2021/06/29 02:26:13;;;;;;;2.97;2.78;;;;;;;18.72;100.00;98542.31;4799854;29;103938;-76
2021/06/29 02:28:41;;;;;;;3.03;2.70;;;;;;;18.81;100.00;98541.28;4793400;29;103816;-77
2021/06/29 02:31:09;;;;;;;3.40;3.15;;;;;;;18.79;100.00;98527.22;4809688;29;103295;-77
2021/06/29 02:33:38;;;;;;;3.10;2.90;;;;;;;18.81;100.00;98535.94;4809970;29;103400;-76
2021/06/29 02:36:07;;;;;;;3.80;2.88;;;;;;;18.77;100.00;98534.59;4784781;29;103824;-77
2021/06/29 02:38:36;;;;;;;4.45;2.88;;;;;;;18.76;100.00;98532.91;4802859;29;103694;-76
2021/06/29 02:41:06;;;;;;;4.35;3.55;;;;;;;18.59;100.00;98528.53;4800827;29;103586;-76
2021/06/29 02:43:36;;;;;;;4.72;4.30;;;;;;;18.46;100.00;98517.47;4809754;29;103354;-76
2021/06/29 02:46:04;;;;;;;8.00;5.03;;;;;;;18.07;100.00;98497.66;4804483;29;103846;-76
2021/06/29 02:48:32;;;;;;;5.55;4.43;;;;;;;18.12;100.00;98503.34;4800358;29;103745;-76
2021/06/29 02:51:01;;;;;;;3.50;3.20;;;;;;;18.39;100.00;98513.75;4812125;29;102684;-77
2021/06/29 02:53:29;;;;;;;6.30;3.78;;;;;;;18.53;100.00;98521.19;4806316;29;103098;-76
2021/06/29 02:55:57;;;;;;;3.47;3.17;;;;;;;18.50;100.00;98537.56;4812365;29;103954;-76
2021/06/29 02:58:27;;;;;;;3.90;3.58;;;;;;;18.42;100.00;98538.34;4805876;29;103142;-77
2021/06/29 03:00:55;;;;;;;3.00;2.78;;;;;;;18.58;100.00;98529.56;4797715;29;102687;-76
2021/06/29 03:03:23;;;;;;;4.38;3.38;;;;;;;18.58;100.00;98529.56;4798519;29;103193;-76
2021/06/29 03:05:51;;;;;;;3.90;3.10;;;;;;;18.64;100.00;98539.59;4811383;29;103311;-77
2021/06/29 03:08:18;;;;;;;2.97;2.78;;;;;;;18.71;100.00;98540.63;4798894;29;103733;-77
2021/06/29 03:10:46;;;;;;;3.05;2.80;;;;;;;18.76;100.00;98543.63;4809601;29;102977;-76
2021/06/29 03:13:14;;;;;;;2.17;2.08;;;;;;;18.81;100.00;98541.28;4807286;29;103035;-77
2021/06/29 03:15:44;;;;;;;3.90;2.78;;;;;;;18.86;100.00;98536.25;4797274;29;103943;-77
2021/06/29 03:18:11;;;;;;;3.72;3.42;;;;;;;18.84;100.00;98524.88;4810142;29;103900;-79
2021/06/29 03:20:39;;;;;;;3.35;3.05;;;;;;;18.79;100.00;98527.22;4810220;29;103070;-77
2021/06/29 03:23:07;;;;;;;2.97;2.70;;;;;;;18.81;100.00;98519.88;4807616;29;102962;-77
2021/06/29 03:25:37;;;;;;;5.32;4.50;;;;;;;18.71;100.00;98503.16;4804730;29;104368;-76
2021/06/29 03:28:05;;;;;;;5.05;4.00;;;;;;;18.53;100.00;98494.44;4794071;29;103675;-77
2021/06/29 03:30:33;;;;;;;4.38;3.38;;;;;;;18.40;100.00;98486.03;4802216;29;103175;-76
2021/06/29 03:33:03;;;;;;;5.70;5.20;;;;;;;18.25;100.00;98471.63;4791762;29;103285;-76
2021/06/29 03:35:31;;;;;;;6.05;5.55;;;;;;;17.81;100.00;98445.13;4807015;29;105313;-77
2021/06/29 03:37:59;;;;;;;4.95;4.00;;;;;;;17.99;100.00;98441.50;4806796;29;103440;-77
2021/06/29 03:40:27;;;;;;;8.43;5.65;;;;;;;18.06;100.00;98471.91;4802130;29;103342;-77
2021/06/29 03:42:55;;;;;;;6.45;4.20;;;;;;;18.21;100.00;98470.28;4793422;29;103437;-77
2021/06/29 03:45:23;;;;;;;3.25;3.05;;;;;;;18.33;100.00;98469.78;4800107;29;103845;-77
2021/06/29 03:47:51;;;;;;;2.70;2.50;;;;;;;18.49;100.00;98466.34;4800429;29;104897;-77
2021/06/29 03:50:21;;;;;;;4.78;4.38;;;;;;;18.34;100.00;98460.78;4807427;29;103155;-77
2021/06/29 03:52:49;;;;;;;3.13;2.92;;;;;;;18.51;100.00;98459.00;4809873;29;103441;-80
2021/06/29 03:55:17;;;;;;;3.25;3.05;;;;;;;18.60;100.00;98468.69;4809185;29;105627;-84
2021/06/29 03:57:45;;;;;;;2.80;2.60;;;;;;;18.70;100.00;98479.22;4801712;29;104696;-84
2021/06/29 04:00:14;;;;;;;4.25;3.05;;;;;;;18.76;100.00;98471.38;4805998;29;103012;-83
2021/06/29 04:02:42;;;;;;;3.67;2.85;;;;;;;18.81;100.00;98466.34;4801090;29;104802;-84
2021/06/29 04:05:12;;;;;;;4.95;3.15;;;;;;;18.84;100.00;98470.53;4792598;29;103683;-83
2021/06/29 04:07:42;;;;;;;3.35;2.97;;;;;;;18.88;100.00;98463.84;4800577;29;105213;-83
2021/06/29 04:10:10;;;;;;;3.25;3.05;;;;;;;18.87;100.00;98454.97;4801935;29;103089;-84
2021/06/29 04:12:38;;;;;;;2.70;2.50;;;;;;;18.90;100.00;98443.94;4794036;29;104980;-84
2021/06/29 04:15:08;;;;;;;4.65;3.17;;;;;;;18.94;100.00;98445.28;4800321;29;105186;-83
2021/06/29 04:17:36;;;;;;;3.78;3.47;;;;;;;18.85;100.00;98437.41;4792535;29;104983;-79
2021/06/29 04:20:06;;;;;;;3.20;3.00;;;;;;;18.79;100.00;98430.91;4807128;29;103179;-84
2021/06/29 04:22:34;;;;;;;4.00;3.70;;;;;;;18.71;100.00;98420.22;4793082;29;102780;-82
2021/06/29 04:25:04;;;;;;;6.40;5.80;;;;;;;18.39;100.00;98407.63;4794142;29;105389;-81
2021/06/29 04:27:32;;;;;;;5.70;5.20;;;;;;;18.39;100.00;98401.44;4791158;29;103808;-86
2021/06/29 04:30:00;;;;;;;7.05;6.18;;;;;;;18.06;100.00;98386.38;4790576;29;102971;-82
2021/06/29 04:32:28;;;;;;;8.50;7.22;;;;;;;17.70;100.00;98365.28;4800033;29;103017;-86
2021/06/29 04:34:56;;;;;;;10.00;8.10;;;;;;;17.39;100.00;98332.13;4808204;29;104403;-76
2021/06/29 04:37:25;;;;;;;10.70;8.75;;;;;;;17.28;100.00;98292.38;4802464;29;103913;-77
2021/06/29 04:39:53;;;;;;;8.32;7.53;;;;;;;17.17;100.00;98252.63;4803307;29;103219;-78
2021/06/29 04:42:23;;;;;;;5.80;5.30;;;;;;;17.29;100.00;98297.53;4792424;29;104493;-78
2021/06/29 04:44:51;;;;;;;4.85;4.45;;;;;;;17.68;100.00;98359.28;4788798;29;104611;-77
2021/06/29 04:47:20;;;;;;;4.95;4.65;;;;;;;17.81;100.00;98369.47;4791846;29;104299;-76
2021/06/29 04:49:48;;;;;;;5.80;5.10;;;;;;;17.95;100.00;98380.38;4800343;29;103022;-77
2021/06/29 04:52:16;;;;;;;4.25;3.85;;;;;;;18.12;100.00;98383.06;4793304;29;103009;-82
2021/06/29 04:54:44;;;;;;;5.07;4.50;;;;;;;18.20;100.00;98399.09;4802709;29;103890;-85
2021/06/29 04:57:12;;;;;;;5.18;4.50;;;;;;;18.33;100.00;98412.84;4779933;29;103766;-78
2021/06/29 04:59:41;;;;;;;5.05;4.65;;;;;;;18.30;100.00;98413.16;4768952;29;104131;-79
2021/06/29 05:02:09;;;;;;;4.95;4.10;;;;;;;18.33;100.00;98412.84;4787894;29;103411;-83
2021/06/29 05:04:37;;;;;;;5.10;4.60;;;;;;;18.48;100.00;98427.22;4785033;29;105153;-79
2021/06/29 05:07:05;;;;;;;4.40;4.00;;;;;;;18.50;100.00;98426.06;4788814;29;104995;-77
2021/06/29 05:09:33;;;;;;;6.28;5.45;;;;;;;18.46;100.00;98419.34;4795372;29;103797;-76
2021/06/29 05:12:01;;;;;;;6.05;4.78;;;;;;;18.44;100.00;98404.47;4794348;29;103409;-74
2021/06/29 05:14:29;;;;;;;10.73;6.78;;;;;;;18.23;100.00;98406.78;4782433;29;105802;-75
2021/06/29 05:16:58;;;;;;;7.35;5.90;;;;;;;18.06;100.00;98391.72;4779072;29;105745;-77
2021/06/29 05:19:27;;;;;;;7.13;6.53;;;;;;;17.83;100.00;98379.00;4760637;29;103382;-74
2021/06/29 05:21:55;;;;;;;8.02;6.85;;;;;;;17.89;100.00;98375.69;4776124;29;104244;-74
2021/06/29 05:24:23;;;;;;;7.55;6.75;;;;;;;18.08;100.00;98371.03;4786171;29;105243;-74
2021/06/29 05:26:51;;;;;;;5.63;5.22;;;;;;;18.27;100.00;98370.72;4785324;29;103820;-75
2021/06/29 05:29:19;;;;;;;5.50;4.88;;;;;;;18.39;100.00;98366.69;4773185;29;103795;-74
2021/06/29 05:31:47;;;;;;;8.40;7.22;;;;;;;18.31;100.00;98366.69;4792676;29;103475;-75
2021/06/29 05:34:16;;;;;;;8.07;7.25;;;;;;;17.96;100.00;98349.13;4789595;29;103863;-75
2021/06/29 05:36:44;;;;;;;9.55;7.20;;;;;;;17.79;100.00;98340.28;4770851;29;103754;-77
2021/06/29 05:39:15;;;;;;;5.75;5.25;;;;;;;17.98;100.00;98338.28;4777321;29;103675;-89
2021/06/29 05:41:43;;;;;;;5.30;4.50;;;;;;;18.15;100.00;98358.66;4780930;29;103437;-77
2021/06/29 05:44:11;;;;;;;5.15;4.75;;;;;;;18.37;100.00;98363.34;4799142;29;105296;-86
2021/06/29 05:46:40;;;;;;;4.78;4.38;;;;;;;18.57;100.00;98378.06;4790372;29;103724;-84
2021/06/29 05:49:10;;;;;;;6.00;5.40;;;;;;;18.61;100.00;98379.41;4789066;29;103119;-83
2021/06/29 05:51:43;;;;;;;3.80;3.50;;;;;;;18.72;100.00;98376.41;4770205;29;103141;-85
2021/06/29 05:54:11;;;;;;;4.68;4.28;;;;;;;18.86;100.00;98375.66;4803292;29;104037;-76
2021/06/29 05:56:40;;;;;;;4.57;4.20;;;;;;;18.90;100.00;98390.41;4802984;29;104215;-75
2021/06/29 05:59:08;;;;;;;4.03;3.65;;;;;;;18.92;100.00;98387.53;4791792;29;103409;-75
2021/06/29 06:01:36;;;;;;;5.45;4.95;;;;;;;19.00;100.00;98400.94;4786711;29;103250;-74
2021/06/29 06:04:11;;;;;;;4.10;3.78;;;;;;;19.06;100.00;98395.72;4790520;29;103937;-74
2021/06/29 06:06:40;;;;;;;4.90;4.45;;;;;;;19.21;100.00;98397.66;4805186;29;103761;-74
2021/06/29 06:09:08;;;;;;;5.40;4.45;;;;;;;19.31;100.00;98411.72;4803201;29;103279;-77
2021/06/29 06:11:36;;;;;;;4.88;4.47;;;;;;;19.38;100.00;98399.28;4792556;29;103608;-75
2021/06/29 06:14:04;;;;;;;4.60;4.20;;;;;;;19.38;100.00;98399.28;4805588;29;104458;-76
2021/06/29 06:16:32;;;;;;;5.00;4.50;;;;;;;19.46;100.00;98386.72;4805735;29;104780;-77
2021/06/29 06:19:01;;;;;;;5.70;4.72;;;;;;;19.51;100.00;98383.53;4806537;29;103016;-73
2021/06/29 06:21:29;;;;;;;6.18;5.00;;;;;;;19.62;100.00;98380.47;4799523;29;102887;-83
2021/06/29 06:23:58;;;;;;;10.25;6.25;;;;;;;19.62;100.00;98375.94;4803953;29;103552;-80
2021/06/29 06:26:26;;;;;;;8.77;6.10;;;;;;;19.58;100.00;98369.28;4791554;29;104095;-83
2021/06/29 06:28:54;;;;;;;9.00;4.45;;;;;;;19.83;100.00;98356.56;4776782;29;105470;-83
2021/06/29 06:31:23;;;;;;;3.97;3.28;;;;;;;20.10;100.00;98349.81;4784837;29;105458;-83
2021/06/29 06:33:51;;;;;;;6.82;5.93;;;;;;;19.91;99.84;98343.09;4783126;29;104989;-82
2021/06/29 06:36:19;;;;;;;7.20;5.95;;;;;;;19.92;100.00;98346.63;4791318;29;104630;-83
2021/06/29 06:38:47;;;;;;;12.52;8.48;;;;;;;19.63;100.00;98355.34;4783671;29;103742;-83
2021/06/29 06:41:17;;;;;;;10.57;7.13;;;;;;;19.54;100.00;98354.53;4774199;29;103250;-83
2021/06/29 06:43:46;;;;;;;4.50;4.20;;;;;;;19.92;100.00;98350.16;4791030;29;104469;-82
2021/06/29 06:46:14;;;;;;;4.30;3.90;;;;;;;20.36;100.00;98347.66;4785629;29;104649;-84
2021/06/29 06:48:43;;;;;;;6.85;6.25;;;;;;;20.16;100.00;98346.44;4774285;29;103264;-84
2021/06/29 06:51:12;;;;;;;4.75;4.32;;;;;;;20.44;100.00;98338.69;4797639;29;102930;-82
2021/06/29 06:53:40;;;;;;;6.22;5.60;;;;;;;20.88;98.65;98342.28;4795038;29;104545;-82
2021/06/29 06:56:14;;;;;;;7.65;6.72;;;;;;;20.66;100.00;98337.81;4802803;29;103602;-82
2021/06/29 06:58:45;;;;;;;5.55;5.05;;;;;;;20.94;95.67;98330.78;4803638;29;103147;-83
2021/06/29 07:01:15;;;;;;;4.65;4.18;;;;;;;21.08;94.98;98340.72;4808198;29;103210;-83
2021/06/29 07:03:44;;;;;;;5.93;4.53;;;;;;;21.08;93.67;98348.78;4797115;29;103571;-83
2021/06/29 07:06:13;;;;;;;4.07;3.42;;;;;;;21.24;95.89;98347.78;4807297;29;104252;-83
2021/06/29 07:08:42;;;;;;;4.05;3.45;;;;;;;21.64;93.48;98343.75;4786316;29;102971;-79
2021/06/29 07:11:11;;;;;;;5.82;5.13;;;;;;;21.08;92.98;98338.03;4803911;29;103193;-79
2021/06/29 07:13:39;;;;;;;4.05;3.75;;;;;;;21.33;93.16;98335.91;4802535;29;104085;-81
2021/06/29 07:16:09;;;;;;;3.20;3.00;;;;;;;21.30;91.79;98342.50;4793748;29;104915;-81
2021/06/29 07:18:37;;;;;;;3.15;2.50;;;;;;;21.87;89.21;98328.28;4806635;29;103082;-74
2021/06/29 07:21:06;;;;;;;2.30;2.10;;;;;;;22.11;87.43;98325.25;4798522;29;103658;-80
2021/06/29 07:23:34;;;;;;;2.13;2.00;;;;;;;22.13;86.59;98323.19;4781251;29;104485;-78
2021/06/29 07:26:03;;;;;;;3.38;3.10;;;;;;;22.05;87.24;98320.63;4800219;29;104727;-86
2021/06/29 07:28:31;;;;;;;3.70;3.40;;;;;;;21.91;88.69;98329.59;4787637;29;103701;-77
2021/06/29 07:30:59;;;;;;;5.18;2.30;;;;;;;22.43;87.32;98313.91;4796073;29;102860;-78
2021/06/29 07:33:29;;;;;;;2.85;2.58;;;;;;;22.33;82.81;98318.81;4801788;29;103823;-78
2021/06/29 07:35:57;;;;;;;1.98;1.80;;;;;;;22.58;80.48;98321.91;4800414;29;103890;-77
2021/06/29 07:38:25;;;;;;;1.67;1.58;;;;;;;22.83;79.30;98316.94;4792508;29;102903;-77
2021/06/29 07:40:53;;;;;;;1.50;1.40;;;;;;;22.91;77.21;98312.22;4778700;29;104755;-77
2021/06/29 07:43:21;;;;;;;1.83;1.40;;;;;;;22.97;76.92;98313.28;4804027;29;103976;-78
2021/06/29 07:45:49;;;;;;;1.40;1.30;;;;;;;22.88;75.14;98309.09;4808436;29;103229;-81
2021/06/29 07:48:18;;;;;;;1.60;1.40;;;;;;;23.16;73.07;98301.78;4810189;29;102876;-80
2021/06/29 07:50:47;;;;;;;2.35;1.85;;;;;;;23.64;73.69;98306.16;4785663;29;103067;-79
2021/06/29 07:53:15;;;;;;;1.42;1.30;;;;;;;23.93;73.21;98296.91;4790759;29;103842;-81
2021/06/29 07:55:43;;;;;;;1.33;1.23;;;;;;;24.30;71.56;98292.81;4798470;29;104689;-80
2021/06/29 07:58:11;;;;;;;1.60;1.45;;;;;;;24.08;71.40;98288.63;4797255;29;103081;-80
2021/06/29 08:00:40;;;;;;;2.25;1.60;;;;;;;24.21;70.81;98281.41;4803637;29;102608;-82
2021/06/29 08:03:08;;;;;;;1.33;1.23;;;;;;;24.57;69.71;98275.56;4797123;29;104004;-78
2021/06/29 08:05:36;;;;;;;2.67;1.67;;;;;;;25.20;68.46;98276.69;4800191;29;105133;-79
2021/06/29 08:08:07;;;;;;;2.00;1.20;;;;;;;25.21;66.96;98288.31;4797202;29;103358;-79
2021/06/29 08:10:36;;;;;;;3.25;1.50;;;;;;;25.56;66.33;98281.56;4798599;29;103141;-79
2021/06/29 08:13:05;;;;;;;1.63;1.25;;;;;;;25.67;65.25;98278.16;4802413;29;103544;-79
2021/06/29 08:15:34;;;;;;;1.50;1.40;;;;;;;25.80;63.26;98280.78;4809699;29;105134;-82
2021/06/29 08:18:02;;;;;;;1.63;1.10;;;;;;;25.66;62.32;98281.06;4795257;29;103153;-74
2021/06/29 08:20:30;;;;;;;3.83;1.65;;;;;;;25.80;63.88;98274.53;4806361;29;103022;-84
2021/06/29 08:22:59;;;;;;;1.67;1.25;;;;;;;26.47;62.41;98276.59;4803857;29;104956;-78
2021/06/29 08:25:28;;;;;;;1.75;1.20;;;;;;;26.75;61.75;98271.50;4796080;29;103708;-81
2021/06/29 08:27:57;;;;;;;1.70;1.60;;;;;;;26.72;60.24;98271.97;4808253;29;102690;-79
2021/06/29 08:30:26;;;;;;;2.45;1.30;;;;;;;26.87;60.89;98271.63;4808415;29;102869;-81
2021/06/29 08:32:54;;;;;;;1.00;1.00;;;;;;;27.58;59.63;98261.00;4797625;29;105631;-79
2021/06/29 08:35:23;;;;;;;1.60;1.50;;;;;;;26.35;60.66;98264.81;4804930;29;104277;-79
2021/06/29 08:37:51;;;;;;;1.20;1.10;;;;;;;26.66;62.81;98262.03;4807862;29;103017;-81
2021/06/29 08:40:20;;;;;;;2.08;1.05;;;;;;;26.73;58.27;98260.06;4788319;29;104956;-79
2021/06/29 08:42:49;;;;;;;1.00;1.00;;;;;;;26.48;57.90;98260.09;4772325;29;103935;-78
2021/06/29 08:45:18;;;;;;;1.08;0.98;;;;;;;27.87;58.01;98254.75;4790324;29;104284;-79
2021/06/29 08:47:46;;;;;;;3.60;1.35;;;;;;;27.01;55.95;98246.88;4798655;29;103066;-78
2021/06/29 08:50:16;;;;;;;1.60;0.98;;;;;;;27.69;56.29;98233.09;4786351;29;103412;-79
2021/06/29 08:52:44;;;;;;;1.20;1.10;;;;;;;27.73;54.10;98228.03;4799680;29;104662;-79
2021/06/29 08:55:13;;;;;;;0.90;0.90;;;;;;;28.38;51.85;98221.56;4806322;29;103714;-79
2021/06/29 08:57:41;;;;;;;1.67;0.80;;;;;;;28.58;51.69;98221.19;4803996;29;102883;-77
2021/06/29 09:00:12;;;;;;;1.20;1.10;;;;;;;28.54;51.21;98215.44;4789526;29;103055;-78
2021/06/29 09:02:41;;;;;;;1.98;1.00;;;;;;;28.96;52.59;98218.84;4796218;29;103321;-78
2021/06/29 09:05:21;;;;;;;1.67;0.90;;;;;;;28.77;50.51;98208.34;4806910;29;103836;-78
2021/06/29 09:08:00;;;;;;;0.95;0.82;;;;;;;27.19;54.08;98215.38;4808391;29;103099;-78
2021/06/29 09:10:28;;;;;;;4.47;1.33;;;;;;;26.74;55.92;98214.84;4806872;29;103145;-78
2021/06/29 09:12:57;;;;;;;0.98;0.98;;;;;;;27.31;56.96;98214.38;4803593;29;103930;-80
2021/06/29 09:15:33;;;;;;;1.10;1.00;;;;;;;26.97;57.65;98213.16;4791243;29;103678;-78
2021/06/29 09:18:17;;;;;;;1.30;1.20;;;;;;;26.90;57.67;98214.25;4805987;29;103010;-77
2021/06/29 09:20:48;;;;;;;2.42;1.08;;;;;;;26.40;58.14;98216.22;4803106;29;103121;-78
2021/06/29 09:23:18;;;;;;;1.50;1.10;;;;;;;26.99;54.57;98215.63;4793744;29;103703;-78
2021/06/29 09:25:49;;;;;;;2.28;1.20;;;;;;;26.83;55.80;98218.94;4801702;29;104178;-77
2021/06/29 09:28:20;;;;;;;1.45;1.10;;;;;;;26.56;57.32;98214.81;4803582;29;103474;-78
2021/06/29 09:30:52;;;;;;;0.90;0.90;;;;;;;26.75;56.97;98213.81;4802813;29;103609;-78
2021/06/29 09:33:22;;;;;;;2.95;1.00;;;;;;;26.75;56.35;98209.19;4784916;29;103556;-76
2021/06/29 09:35:53;;;;;;;1.10;1.00;;;;;;;26.64;56.92;98207.22;4790445;29;104534;-77
2021/06/29 09:38:23;;;;;;;0.73;0.70;;;;;;;26.83;57.21;98203.53;4796939;29;103649;-83
2021/06/29 09:40:57;;;;;;;1.58;0.98;;;;;;;27.79;55.84;98189.13;4793374;29;103603;-77
2021/06/29 09:43:30;;;;;;;1.63;1.38;;;;;;;27.56;55.30;98184.44;4794139;29;105212;-76
2021/06/29 09:46:02;;;;;;;1.00;0.80;;;;;;;26.22;57.68;98189.09;4790366;29;103667;-77
2021/06/29 09:48:40;;;;;;;1.30;1.20;;;;;;;25.93;58.29;98180.59;4790542;29;102862;-77
2021/06/29 09:51:14;;;;;;;1.10;1.00;;;;;;;26.39;56.32;98184.78;4800444;29;103678;-76
2021/06/29 09:53:43;;;;;;;1.10;1.00;;;;;;;26.72;55.95;98177.16;4791145;29;103739;-77
2021/06/29 09:56:14;;;;;;;0.93;0.82;;;;;;;27.37;56.16;98169.25;4801640;29;103121;-78
2021/06/29 09:58:46;;;;;;;1.48;1.30;;;;;;;27.87;50.89;98161.63;4805501;29;102947;-78
2021/06/29 10:01:17;;;;;;;1.38;1.20;;;;;;;28.04;53.98;98155.28;4790912;29;105829;-78
2021/06/29 10:03:49;;;;;;;1.40;1.30;;;;;;;28.57;52.96;98149.75;4783074;29;104041;-79
2021/06/29 10:06:20;;;;;;;1.05;1.05;;;;;;;26.55;55.18;98149.00;4768063;29;104226;-79
2021/06/29 10:08:50;;;;;;;2.78;0.98;;;;;;;27.16;55.72;98139.94;4781456;29;103340;-79
2021/06/29 10:11:31;;;;;;;1.92;1.55;;;;;;;26.74;55.57;98147.09;4803373;29;103306;-78
2021/06/29 10:14:02;;;;;;;2.17;1.67;;;;;;;26.75;55.02;98144.16;4793120;29;105591;-79
2021/06/29 10:16:37;;;;;;;2.95;1.55;;;;;;;26.15;57.33;98136.91;4805616;29;103880;-78
2021/06/29 10:19:17;;;;;;;4.15;1.35;;;;;;;27.10;58.48;98130.00;4806203;29;103481;-79
2021/06/29 10:21:48;;;;;;;1.17;1.08;;;;;;;28.72;54.40;98130.25;4777641;29;103176;-80
2021/06/29 10:24:20;;;;;;;1.30;1.20;;;;;;;28.68;57.09;98127.19;4772219;29;103372;-76
2021/06/29 10:26:50;;;;;;;2.97;1.50;;;;;;;28.08;54.03;98125.78;4805732;29;104936;-78
2021/06/29 10:29:20;;;;;;;2.47;1.40;;;;;;;27.52;53.82;98118.16;4782421;29;104055;-80
2021/06/29 10:31:51;;;;;;;1.90;1.52;;;;;;;26.97;55.05;98123.72;4794574;29;103240;-79
2021/06/29 10:34:20;;;;;;;1.33;1.23;;;;;;;27.27;57.24;98125.59;4763273;29;105445;-79
2021/06/29 10:36:50;;;;;;;1.30;1.20;;;;;;;26.96;55.58;98113.91;4782927;29;103240;-79
2021/06/29 10:39:20;;;;;;;1.17;1.08;;;;;;;27.82;56.54;98118.91;4785103;29;103464;-78
2021/06/29 10:41:51;;;;;;;1.33;1.23;;;;;;;28.68;57.90;98112.78;4782880;29;103442;-79
2021/06/29 10:44:21;;;;;;;1.38;1.20;;;;;;;29.41;56.80;98117.50;4782390;29;104050;-79
2021/06/29 10:46:52;;;;;;;1.45;1.35;;;;;;;28.28;54.86;98106.44;4792735;29;103744;-79
2021/06/29 10:49:30;;;;;;;2.15;1.58;;;;;;;27.80;55.71;98107.47;4788807;29;103764;-79
2021/06/29 10:52:00;;;;;;;3.08;1.33;;;;;;;28.23;52.70;98104.44;4781530;29;103130;-79
2021/06/29 10:54:46;;;;;;;1.50;1.40;;;;;;;27.13;53.87;98099.72;4798564;29;104411;-75
2021/06/29 10:57:17;;;;;;;1.20;1.10;;;;;;;28.56;52.67;98098.34;4786110;29;103139;-75
2021/06/29 10:59:49;;;;;;;3.10;1.50;;;;;;;27.86;52.33;98092.94;4791507;29;103120;-78
2021/06/29 11:02:32;;;;;;;3.38;1.42;;;;;;;27.77;55.01;98083.50;4789912;29;103507;-79
2021/06/29 11:05:03;;;;;;;3.08;1.45;;;;;;;28.90;53.70;98083.88;4798646;29;103512;-77
2021/06/29 11:07:41;;;;;;;1.50;1.30;;;;;;;29.48;50.99;98071.88;4785138;29;105120;-76
2021/06/29 11:10:12;;;;;;;1.90;1.40;;;;;;;28.83;50.87;98077.72;4793917;29;103274;-81
2021/06/29 11:12:49;;;;;;;1.45;1.20;;;;;;;28.81;51.08;98090.75;4781643;29;103407;-80
2021/06/29 11:15:17;;;;;;;3.72;1.30;;;;;;;29.31;51.36;98097.19;4793960;29;104569;-80
2021/06/29 11:18:00;;;;;;;3.17;1.35;;;;;;;29.57;49.36;98094.91;4799586;29;104411;-79
2021/06/29 11:20:39;;;;;;;2.55;1.33;;;;;;;28.97;49.50;98092.69;4799066;29;103498;-80
2021/06/29 11:23:10;;;;;;;1.60;1.17;;;;;;;29.01;48.79;98083.00;4797020;29;103797;-78
2021/06/29 11:25:43;;;;;;;3.00;0.95;;;;;;;30.30;48.95;98086.53;4797497;29;104303;-77
2021/06/29 11:28:33;;;;;;;1.98;1.40;;;;;;;31.18;47.61;98071.88;4794805;29;104397;-76
2021/06/29 11:31:10;;;;;;;1.40;1.30;;;;;;;30.27;47.94;98079.69;4791242;29;103363;-77